Asbest, Russia
Current Conditions -  °F | °C
As of 11:30 PM on Saturday 20 Dec 2014 (Local Time) from USSS Reporting Station
Overcast Overcast  
Wind Chill: 21°   Ceiling: 6700
Heat Index: 28°   Visibility: 6mi
Dew Point: 27°   Wind: 7mph
Humidity: 93%   Direction: 160°SSE
Pressure: 29.77"   Gusts: NA
Location:  57.02°N, 61.46°E
Report Text: USSS 201830Z 16003MPS 9999 SCT020 OVC067 M02/M03 Q1008 76520237NOSIG RMK QFE736
Loading
Personal Weather Stations






























Interactive Weather Map New forecast layout! Learn more

10-Day Weather Forecast

Advertisements
Track Severe Weather on mobile